Data for 12/10/2010

Time Sea-Level Adjusted Pressure Absolute Pressure Temperature Relative Humidity Dew Point   
(mb) (inHg) (mb) (inHg) (C) (F) (%) (C) (F)
00:05 1011 29.85 840 24.81 0.5 32.9 48 -9.3 15.3
00:10 1010 29.83 840 24.81 0.5 32.9 48 -9.4 15.1
00:15 1010 29.83 840 24.81 0.7 33.2 47 -9.3 15.2
00:20 1010 29.83 840 24.81 0.7 33.2 47 -9.5 14.9
00:25 1010 29.83 840 24.81 0.8 33.5 47 -9.2 15.4
00:30 1010 29.83 840 24.81 0.6 33.1 48 -9.2 15.4
00:35 1010 29.83 840 24.81 0.5 32.8 48 -9.3 15.3
00:40 1010 29.83 840 24.81 -0 31.9 50 -9.3 15.3
00:45 1010 29.83 839 24.78 0.4 32.7 46 -9.8 14.3
00:50 1010 29.83 839 24.78 0.9 33.6 49 -8.6 16.5
00:55 1010 29.83 839 24.78 -0.5 31.1 51 -9.4 15
01:00 1010 29.83 839 24.78 0.1 32.1 49 -9.4 15
01:05 1010 29.83 839 24.78 0.3 32.5 48 -9.6 14.7
01:10 1010 29.83 839 24.78 0.4 32.7 45 -10.1 13.8
01:15 1010 29.83 839 24.78 1.1 33.9 42 -10.4 13.3
01:20 1010 29.83 839 24.78 1.7 35.1 39 -10.8 12.6
01:25 1010 29.83 839 24.78 2.1 35.8 43 -9.2 15.4
01:30 1010 29.83 839 24.78 1.5 34.8 43 -9.8 14.4
01:35 1010 29.83 839 24.78 1.7 35.1 42 -9.9 14.2
01:40 1010 29.83 839 24.78 1.6 34.8 42 -10.1 13.9
01:45 1009 29.8 839 24.78 1.5 34.6 43 -9.8 14.4
01:50 1009 29.8 839 24.78 0.9 33.7 48 -8.9 16
01:55 1009 29.8 839 24.78 0.2 32.4 51 -8.8 16.2
02:00 1009 29.8 838 24.75 -0.2 31.6 53 -8.6 16.5
02:05 1009 29.8 838 24.75 -0.2 31.7 53 -8.7 16.4
02:10 1009 29.8 838 24.75 -0.1 31.9 51 -9.1 15.6
02:15 1009 29.8 838 24.75 0.5 32.9 50 -8.7 16.4
02:20 1009 29.8 838 24.75 0.3 32.6 48 -9.5 14.8
02:25 1008 29.77 838 24.75 2.5 36.6 40 -9.9 14.2
02:30 1008 29.77 837 24.72 1.7 35.1 47 -8.5 16.6
02:35 1008 29.77 837 24.72 1 33.8 46 -9.4 15.2
02:40 1008 29.77 837 24.72 1 33.9 47 -9.1 15.6
02:45 1008 29.77 837 24.72 1 33.7 47 -9 15.8
02:50 1008 29.77 837 24.72 1.1 34.1 47 -9.1 15.6
02:55 1008 29.77 837 24.72 1.6 35 45 -9.2 15.5
03:00 1008 29.77 837 24.72 2.1 35.8 42 -9.5 14.8
03:05 1008 29.77 837 24.72 2.2 35.9 45 -8.6 16.5
03:10 1008 29.77 837 24.72 1.7 35.1 45 -9.1 15.6
03:15 1008 29.77 837 24.72 1.7 35 46 -8.8 16.2
03:20 1008 29.77 837 24.72 1.2 34.2 48 -8.7 16.4
03:25 1007 29.74 837 24.72 1.1 33.9 47 -9.1 15.6
03:30 1007 29.74 836 24.69 1.7 35 45 -8.9 15.9
03:35 1007 29.74 836 24.69 1.7 35.1 47 -8.4 16.8
03:40 1007 29.74 836 24.69 1.6 34.9 46 -8.7 16.3
03:45 1007 29.74 836 24.69 1.4 34.4 48 -8.6 16.5
03:50 1007 29.74 836 24.69 1.7 35.1 48 -8.1 17.5
03:55 1007 29.74 836 24.69 1.3 34.4 50 -7.9 17.8
04:00 1007 29.74 836 24.69 1.1 33.9 50 -8.3 17.1
04:05 1007 29.74 836 24.69 1.3 34.3 50 -7.9 17.8
04:10 1007 29.74 836 24.69 1.3 34.3 50 -8.1 17.4
04:15 1007 29.74 836 24.69 1.6 34.9 49 -7.9 17.8
04:20 1007 29.74 836 24.69 1.6 34.9 50 -7.8 17.9
04:25 1007 29.74 836 24.69 1.5 34.6 50 -7.8 18
04:30 1007 29.74 836 24.69 2 35.6 50 -7.5 18.6
04:35 1007 29.74 836 24.69 3.1 37.7 58 -4.4 24
04:40 1006 29.71 836 24.69 3.5 38.2 58 -4 24.8
04:45 1006 29.71 835 24.66 3.7 38.6 58 -3.9 25
04:50 1006 29.71 835 24.66 4.1 39.5 51 -5 23.1
04:55 1006 29.71 836 24.69 4.1 39.4 54 -4.3 24.3
05:00 1007 29.74 836 24.69 3.9 39 56 -4.1 24.7
05:05 1007 29.74 836 24.69 3.8 38.8 57 -3.9 25
05:10 1007 29.74 836 24.69 3.6 38.4 56 -4.3 24.3
05:15 1007 29.74 836 24.69 3.7 38.6 57 -4.1 24.7
05:20 1007 29.74 836 24.69 3.5 38.3 58 -4 24.8
05:25 1006 29.71 836 24.69 3.4 38.1 59 -4 24.8
05:30 1007 29.74 836 24.69 3.1 37.7 60 -3.8 25.2
05:35 1007 29.74 836 24.69 2.9 37.2 62 -3.7 25.3
05:40 1007 29.74 836 24.69 2.8 37 63 -3.7 25.4
05:45 1007 29.74 836 24.69 2.9 37.2 58 -4.5 23.9
05:50 1007 29.74 836 24.69 3 37.3 59 -4.2 24.4
05:55 1007 29.74 836 24.69 2.7 36.9 62 -3.8 25.2
06:00 1007 29.74 836 24.69 2.4 36.2 63 -4 24.8
06:05 1007 29.74 836 24.69 2.6 36.6 67 -3 26.6
06:10 1007 29.74 836 24.69 2.2 36 73 -2.2 28.1
06:15 1007 29.74 836 24.69 1.7 35 78 -1.7 29
06:20 1007 29.74 836 24.69 1.3 34.4 82 -1.5 29.4
06:25 1007 29.74 836 24.69 1.1 34 83 -1.4 29.6
06:30 1007 29.74 836 24.69 1 33.8 84 -1.4 29.4
06:35 1007 29.74 836 24.69 0.9 33.7 84 -1.5 29.3
06:40 1007 29.74 837 24.72 1.1 34 80 -2 28.4
06:45 1008 29.77 837 24.72 1.3 34.3 79 -1.9 28.6
06:50 1008 29.77 837 24.72 1.4 34.4 78 -2.1 28.3
06:55 1008 29.77 837 24.72 1.6 34.8 76 -2.2 28.1
07:00 1009 29.8 838 24.75 1.7 35 79 -1.7 29
07:05 1009 29.8 838 24.75 1.1 33.9 86 -0.9 30.3
07:10 1009 29.8 838 24.75 0.5 32.9 90 -0.9 30.4
07:15 1009 29.8 838 24.75 0.3 32.6 92 -0.9 30.4
07:20 1009 29.8 838 24.75 0.2 32.3 93 -0.9 30.3
07:25 1009 29.8 838 24.75 0.1 32.2 92 -1 30.3
07:30 1009 29.8 838 24.75 0.2 32.3 92 -1 30.3
07:35 1009 29.8 838 24.75 0.1 32.1 92 -1 30.2
07:40 1009 29.8 838 24.75 0 32 92 -1.1 30
07:45 1009 29.8 838 24.75 0.1 32.1 91 -1.2 29.8
07:50 1009 29.8 838 24.75 -0.1 31.8 93 -1.2 29.9
07:55 1009 29.8 838 24.75 -0.3 31.4 94 -1.2 29.9
08:00 1009 29.8 838 24.75 -0.4 31.2 95 -1.2 29.8
08:05 1009 29.8 838 24.75 -0.2 31.6 92 -1.3 29.6
08:10 1009 29.8 838 24.75 -0 31.9 87 -1.9 28.5
08:15 1009 29.8 838 24.75 0.5 32.9 86 -1.6 29.1
08:20 1009 29.8 838 24.75 0.6 33.1 78 -2.8 26.9
08:25 1009 29.8 838 24.75 1 33.9 70 -3.9 25
08:30 1009 29.8 838 24.75 1.4 34.6 60 -5.5 22.2
08:35 1009 29.8 838 24.75 1.7 35.1 59 -5.4 22.3
08:40 1009 29.8 838 24.75 1.8 35.2 56 -6 21.2
08:45 1009 29.8 838 24.75 1.8 35.2 54 -6.5 20.3
08:50 1009 29.8 838 24.75 1.7 35.1 53 -6.8 19.8
08:55 1009 29.8 839 24.78 1.6 34.8 50 -7.8 18
09:00 1009 29.8 839 24.78 1.7 35.1 49 -7.8 17.9
09:05 1009 29.8 839 24.78 1.6 35 48 -8.1 17.4
09:10 1009 29.8 839 24.78 1.4 34.6 47 -8.6 16.5
09:15 1009 29.8 839 24.78 1.3 34.4 46 -8.9 15.9
09:20 1009 29.8 839 24.78 1.3 34.3 44 -9.6 14.7
09:25 1009 29.8 839 24.78 1.2 34.2 45 -9.4 15.1
09:30 1010 29.83 839 24.78 1.5 34.8 44 -9.3 15.2
09:35 1010 29.83 839 24.78 1.6 34.8 46 -8.8 16.2
09:40 1010 29.83 839 24.78 1.6 34.9 48 -8.2 17.2
09:45 1010 29.83 839 24.78 1.6 34.8 47 -8.5 16.7
09:50 1010 29.83 839 24.78 1.5 34.7 48 -8.2 17.2
09:55 1010 29.83 839 24.78 1.5 34.6 50 -7.7 18.1
10:00 1010 29.83 839 24.78 1.2 34.1 50 -8 17.6
10:05 1010 29.83 839 24.78 1.1 33.9 52 -7.7 18.1
10:10 1010 29.83 840 24.81 1.1 33.9 52 -7.8 18
10:15 1010 29.83 840 24.81 1.1 34 51 -7.9 17.8
10:20 1011 29.85 840 24.81 1.3 34.4 52 -7.6 18.3
10:25 1011 29.85 840 24.81 1.4 34.4 52 -7.5 18.5
10:30 1011 29.85 840 24.81 1.2 34.2 52 -7.6 18.4
10:35 1011 29.85 840 24.81 1.2 34.2 50 -8.1 17.4
10:40 1011 29.85 840 24.81 1.3 34.4 49 -8.3 17.1
10:45 1011 29.85 840 24.81 1.5 34.6 49 -8.2 17.2
10:50 1011 29.85 840 24.81 1.5 34.7 50 -7.9 17.8
10:55 1011 29.85 840 24.81 1.4 34.6 50 -7.9 17.9
11:00 1011 29.85 840 24.81 1.4 34.6 50 -7.8 18
11:05 1011 29.85 840 24.81 1.5 34.6 49 -8 17.6
11:10 1011 29.85 840 24.81 1.5 34.6 48 -8.3 17
11:15 1011 29.85 840 24.81 1.5 34.7 48 -8.4 16.8
11:20 1011 29.85 840 24.81 1.5 34.7 48 -8.3 17.1
11:25 1011 29.85 840 24.81 1.5 34.7 47 -8.5 16.7
11:30 1011 29.85 840 24.81 1.5 34.7 49 -8 17.5
11:35 1011 29.85 841 24.83 1.5 34.8 48 -8.2 17.2
11:40 1011 29.85 841 24.83 1.7 35 48 -8.1 17.4
11:45 1011 29.85 841 24.83 1.8 35.2 47 -8.3 17.1
11:50 1011 29.85 841 24.83 1.8 35.2 48 -8 17.6
11:55 1011 29.85 841 24.83 1.8 35.3 47 -8.2 17.2
12:00 1011 29.85 841 24.83 1.8 35.3 47 -8.5 16.8
12:05 1011 29.85 841 24.83 1.9 35.4 46 -8.7 16.4
12:10 1011 29.85 841 24.83 1.8 35.3 45 -8.8 16.2
12:15 1011 29.85 841 24.83 1.8 35.2 45 -9 15.9
12:20 1012 29.88 841 24.83 1.7 35.1 45 -8.9 15.9
12:25 1012 29.88 841 24.83 1.7 35 46 -8.8 16.1
12:30 1012 29.88 841 24.83 1.7 35.1 43 -9.7 14.5
12:35 1012 29.88 841 24.83 1.7 35.1 43 -9.6 14.7
12:40 1012 29.88 841 24.83 1.7 35 43 -9.7 14.6
12:45 1012 29.88 841 24.83 1.7 35.1 44 -9.3 15.3
12:50 1012 29.88 841 24.83 1.7 35.1 44 -9.1 15.6
12:55 1012 29.88 841 24.83 1.7 35.1 44 -9.2 15.5
13:00 1012 29.88 841 24.83 1.7 35 43 -9.6 14.7
13:05 1012 29.88 841 24.83 1.6 34.9 45 -9.1 15.7
13:10 1012 29.88 841 24.83 1.6 34.9 45 -9.2 15.4
13:15 1012 29.88 841 24.83 1.6 34.9 46 -8.9 16
13:20 1012 29.88 841 24.83 1.7 35 45 -9.1 15.5
13:25 1012 29.88 841 24.83 1.7 35.1 44 -9.3 15.3
13:30 1012 29.88 841 24.83 1.8 35.3 44 -9.1 15.6
13:35 1012 29.88 842 24.86 1.8 35.3 44 -9.2 15.4
13:40 1012 29.88 842 24.86 1.8 35.2 43 -9.4 15.1
13:45 1012 29.88 842 24.86 1.8 35.2 44 -9.2 15.5
13:50 1013 29.91 842 24.86 1.9 35.4 44 -9.2 15.4
13:55 1013 29.91 842 24.86 1.9 35.5 45 -8.8 16.1
14:00 1013 29.91 842 24.86 2 35.6 44 -9 15.7
14:05 1013 29.91 842 24.86 1.9 35.5 45 -8.7 16.3
14:10 1013 29.91 842 24.86 2 35.5 44 -9 15.8
14:15 1013 29.91 842 24.86 2 35.6 45 -8.7 16.3
14:20 1013 29.91 842 24.86 1.9 35.4 45 -8.8 16.2
14:25 1013 29.91 842 24.86 1.9 35.4 45 -9 15.9
14:30 1013 29.91 842 24.86 1.8 35.3 43 -9.3 15.2
14:35 1013 29.91 842 24.86 1.8 35.2 43 -9.4 15.1
14:40 1013 29.91 842 24.86 1.7 35.1 44 -9.2 15.5
14:45 1013 29.91 842 24.86 1.8 35.3 44 -9.2 15.4
14:50 1013 29.91 842 24.86 1.8 35.2 43 -9.6 14.7
14:55 1013 29.91 842 24.86 1.8 35.2 45 -9.1 15.7
15:00 1013 29.91 843 24.89 1.7 35.1 43 -9.5 14.8
15:05 1013 29.91 843 24.89 1.8 35.3 43 -9.5 14.8
15:10 1014 29.94 843 24.89 1.8 35.2 44 -9.3 15.3
15:15 1014 29.94 843 24.89 1.8 35.2 45 -9 15.8
15:20 1014 29.94 843 24.89 1.8 35.3 43 -9.3 15.2
15:25 1014 29.94 843 24.89 1.7 35.1 42 -9.7 14.5
15:30 1014 29.94 843 24.89 1.8 35.3 41 -9.9 14.1
15:35 1014 29.94 843 24.89 1.9 35.4 41 -10 13.9
15:40 1014 29.94 843 24.89 1.9 35.4 44 -9.2 15.4
15:45 1014 29.94 843 24.89 1.9 35.3 42 -9.7 14.5
15:50 1014 29.94 843 24.89 1.9 35.4 43 -9.4 15.2
15:55 1014 29.94 843 24.89 1.8 35.2 45 -9 15.8
16:00 1014 29.94 843 24.89 1.8 35.2 46 -8.7 16.3
16:05 1014 29.94 843 24.89 1.6 34.9 47 -8.7 16.4
16:10 1014 29.94 844 24.92 1.5 34.7 48 -8.5 16.8
16:15 1014 29.94 844 24.92 1.3 34.4 48 -8.5 16.7
16:20 1015 29.97 844 24.92 1.1 34 49 -8.4 16.9
16:25 1015 29.97 844 24.92 1.2 34.1 51 -8 17.7
16:30 1015 29.97 844 24.92 1.2 34.1 51 -8 17.6
16:35 1015 29.97 844 24.92 1 33.8 52 -7.9 17.8
16:40 1015 29.97 844 24.92 1 33.7 52 -7.7 18.1
16:45 1015 29.97 844 24.92 1 33.7 53 -7.6 18.2
16:50 1015 29.97 844 24.92 1 33.9 52 -7.8 18
16:55 1015 29.97 844 24.92 1 33.8 52 -7.7 18.1
17:00 1015 29.97 844 24.92 0.9 33.7 53 -7.7 18.2
17:05 1015 29.97 845 24.95 0.9 33.5 53 -7.7 18.2
17:10 1015 29.97 845 24.95 0.9 33.6 52 -8 17.6
17:15 1016 30 845 24.95 0.9 33.6 53 -7.6 18.3
17:20 1016 30 845 24.95 0.9 33.6 54 -7.3 18.8
17:25 1016 30 845 24.95 0.8 33.5 55 -7.2 19
17:30 1016 30 845 24.95 0.8 33.5 53 -7.8 18
17:35 1016 30 845 24.95 0.7 33.3 50 -8.6 16.4
17:40 1016 30 845 24.95 0.7 33.2 49 -8.8 16.2
17:45 1016 30 845 24.95 0.6 33 50 -8.8 16.2
17:50 1016 30 845 24.95 0.4 32.8 51 -8.7 16.4
17:55 1016 30 845 24.95 0.2 32.4 51 -8.6 16.5
18:00 1016 30 845 24.95 0.2 32.4 50 -9 15.8
18:05 1016 30 845 24.95 0.3 32.5 51 -8.6 16.5
18:10 1016 30 845 24.95 0.2 32.4 53 -8.4 16.9
18:15 1016 30 845 24.95 0.1 32.2 53 -8.4 16.9
18:20 1016 30 845 24.95 0 32 54 -8.2 17.3
18:25 1016 30 845 24.95 -0.1 31.9 52 -8.8 16.2
18:30 1016 30 846 24.98 0 32.1 52 -8.7 16.4
18:35 1016 30 846 24.98 0 32 51 -8.9 16
18:40 1016 30 846 24.98 0.1 32.1 52 -8.7 16.3
18:45 1017 30.03 846 24.98 0.1 32.2 50 -9.1 15.6
18:50 1017 30.03 846 24.98 0.1 32.2 52 -8.7 16.3
18:55 1017 30.03 846 24.98 0 32.1 51 -8.9 16
19:00 1017 30.03 846 24.98 -0.1 31.9 53 -8.5 16.7
19:05 1017 30.03 846 24.98 -0.2 31.6 55 -8.1 17.3
19:10 1017 30.03 846 24.98 -0.3 31.5 53 -8.7 16.3
19:15 1017 30.03 846 24.98 -0.2 31.6 52 -8.9 16
19:20 1017 30.03 846 24.98 -0.2 31.6 53 -8.7 16.3
19:25 1017 30.03 846 24.98 -0.2 31.7 52 -8.9 15.9
19:30 1017 30.03 846 24.98 -0.1 31.8 53 -8.7 16.3
19:35 1017 30.03 846 24.98 -0.2 31.7 52 -8.8 16.1
19:40 1017 30.03 846 24.98 -0.2 31.6 52 -8.8 16.1
19:45 1017 30.03 846 24.98 -0.3 31.5 53 -8.8 16.1
19:50 1017 30.03 846 24.98 -0.3 31.5 53 -8.8 16.2
19:55 1017 30.03 846 24.98 -0.3 31.5 52 -9 15.8
20:00 1017 30.03 846 24.98 -0.3 31.4 53 -8.8 16.1
20:05 1017 30.03 847 25.01 -0.3 31.4 52 -9 15.8
20:10 1017 30.03 847 25.01 -0.3 31.5 52 -8.9 15.9
20:15 1017 30.03 847 25.01 -0.4 31.3 53 -8.7 16.3
20:20 1017 30.03 847 25.01 -0.5 31.1 53 -8.9 16
20:25 1017 30.03 847 25.01 -0.6 30.9 54 -8.9 16
20:30 1018 30.06 847 25.01 -0.7 30.8 54 -8.9 15.9
20:35 1018 30.06 847 25.01 -0.6 30.8 53 -9.2 15.5
20:40 1018 30.06 847 25.01 -0.6 31 52 -9.3 15.3
20:45 1018 30.06 847 25.01 -0.6 30.9 53 -9.1 15.7
20:50 1018 30.06 847 25.01 -0.6 31 53 -9 15.7
20:55 1018 30.06 847 25.01 -0.6 31 52 -9.3 15.2
21:00 1018 30.06 847 25.01 -0.6 31 53 -9.1 15.7
21:05 1018 30.06 847 25.01 -0.6 30.9 51 -9.5 14.8
21:10 1018 30.06 847 25.01 -0.5 31 51 -9.6 14.7
21:15 1018 30.06 847 25.01 -0.5 31.1 49 -9.9 14.3
21:20 1018 30.06 847 25.01 -0.5 31 51 -9.4 15.1
21:25 1018 30.06 847 25.01 -0.7 30.8 51 -9.5 14.8
21:30 1018 30.06 847 25.01 -0.8 30.6 52 -9.6 14.8
21:35 1018 30.06 847 25.01 -0.9 30.5 52 -9.5 14.9
21:40 1018 30.06 847 25.01 -0.9 30.4 52 -9.6 14.6
21:45 1018 30.06 848 25.04 -0.9 30.4 52 -9.5 14.9
21:50 1018 30.06 848 25.04 -0.9 30.4 53 -9.4 15.1
21:55 1018 30.06 848 25.04 -0.9 30.4 53 -9.4 15.1
22:00 1018 30.06 848 25.04 -0.9 30.4 54 -9.1 15.6
22:05 1019 30.09 848 25.04 -1.1 30 55 -9.1 15.6
22:10 1019 30.09 848 25.04 -1.1 30 53 -9.5 14.8
22:15 1019 30.09 848 25.04 -0.9 30.3 51 -9.8 14.4
22:20 1019 30.09 848 25.04 -0.8 30.5 52 -9.6 14.7
22:25 1019 30.09 848 25.04 -0.9 30.3 53 -9.4 15.2
22:30 1019 30.09 848 25.04 -1 30.3 51 -9.9 14.2
22:35 1019 30.09 848 25.04 -1 30.3 52 -9.6 14.6
22:40 1019 30.09 848 25.04 -1 30.2 53 -9.5 15
22:45 1019 30.09 848 25.04 -1.1 30.1 52 -9.8 14.4
22:50 1019 30.09 848 25.04 -1 30.1 50 -10.1 13.8
22:55 1019 30.09 848 25.04 -1 30.3 52 -9.7 14.5
23:00 1019 30.09 848 25.04 -1.1 30 53 -9.5 14.8
23:05 1019 30.09 848 25.04 -1.2 29.9 53 -9.6 14.7
23:10 1019 30.09 848 25.04 -1.2 29.8 51 -10 14
23:15 1019 30.09 848 25.04 -1.4 29.5 52 -10.1 13.8
23:20 1019 30.09 848 25.04 -1.4 29.5 53 -9.8 14.3
23:25 1019 30.09 848 25.04 -1.3 29.6 54 -9.5 14.9
23:30 1019 30.09 848 25.04 -1.3 29.7 53 -9.7 14.6
23:35 1019 30.09 848 25.04 -1.2 29.8 54 -9.5 14.9
23:40 1019 30.09 849 25.07 -1.3 29.6 52 -9.8 14.3
23:45 1019 30.09 849 25.07 -1.4 29.5 53 -9.7 14.5
23:50 1019 30.09 849 25.07 -1.5 29.3 55 -9.5 14.9
23:55 1019 30.09 849 25.07 -1.6 29.1 56 -9.3 15.3
24:00 1019 30.09 849 25.07 -1.7 29 55 -9.6 14.7